This is the latest recevied weather packets stored in our database for station/object KB1FFS. If no packets are shown the sender has not sent any weather packets the latest 1 day(s).
| Time | Temp. | Humidity | Pressure | Rain* | Wind** | Luminosity | Snow |
|---|---|---|---|---|---|---|---|
| 1778090214 | 15° C | 73% | 1015.7 hPa | 0 mm | - | 463 W/m² | - |
| 1778088694 | 13.89° C | 78% | 1015.9 hPa | 0 mm | - | 198 W/m² | - |
| 1778088391 | 13.33° C | 78% | 1015.8 hPa | 0 mm | - | 177 W/m² | - |
| 1778087785 | 13.33° C | 80% | 1015.4 hPa | 0 mm | - | 127 W/m² | - |
| 1778087180 | 12.78° C | 82% | 1016 hPa | 0 mm | - | 97 W/m² | - |
| 1778086877 | 12.78° C | 83% | 1016 hPa | 0 mm | - | 75 W/m² | - |
| 1778086271 | 12.78° C | 82% | 1016.1 hPa | 0 mm | - | 96 W/m² | - |
| 1778085666 | 12.78° C | 81% | 1016.3 hPa | 0 mm | - | 97 W/m² | - |
| 1778084754 | 12.78° C | 83% | 1016.3 hPa | 0 mm | - | 130 W/m² | - |
| 1778082939 | 12.78° C | 84% | 1015.9 hPa | 0 mm | - | 191 W/m² | - |
| 1778081533 | 12.22° C | 87% | 1015.8 hPa | 0 mm | - | 196 W/m² | - |
| 1778080018 | 12.22° C | 83% | 1018.2 hPa | 0.51 mm | - | 27 W/m² | - |
| 1778077295 | 12.22° C | 80% | 1015.5 hPa | 0 mm | - | 76 W/m² | - |
| 1778076992 | 12.22° C | 80% | 1016.6 hPa | 0 mm | - | 31 W/m² | - |
| 1778076388 | 12.22° C | 80% | 1016.5 hPa | 0 mm | - | 32 W/m² | - |
| 1778076085 | 12.22° C | 79% | 1016.3 hPa | 0 mm | - | 42 W/m² | - |
| 1778075782 | 12.22° C | 79% | 1016.3 hPa | 0 mm | - | 28 W/m² | - |
| 1778075478 | 12.22° C | 80% | 1016 hPa | 0 mm | - | 32 W/m² | - |
| 1778073659 | 12.22° C | 81% | 1015.2 hPa | 0 mm | - | 32 W/m² | - |
| 1778071238 | 11.67° C | 81% | 1014.8 hPa | 0 mm | - | 14 W/m² | - |
| 1778070028 | 12.22° C | 79% | 1014.6 hPa | 0 mm | - | 9 W/m² | - |
| 1778068213 | 12.78° C | 77% | 1014.3 hPa | 0 mm | - | 2 W/m² | - |
| 1778064882 | 13.89° C | 71% | 1013.4 hPa | 0 mm | - | 0 W/m² | - |
| 1778063067 | 13.89° C | 70% | 1013.1 hPa | 0 mm | - | 0 W/m² | - |
| 1778062764 | 13.89° C | 71% | 1012.9 hPa | 0 mm | - | 0 W/m² | - |
* Rain latest hour (hover to see other rain measurements)
** Current wind speed in m/s (hover to see current wind gust speed)